Terminal Aerodrome Forecast
Issued by NWS Quad Cities IA IL

Home | Current Version | Previous Version | Text Only | Print | Product List | Glossary On
Versions: 1 2 3 4 5 6 7 8 9 10 11 12 13 14 15
000
FTUS43 KDVN 071700
TAFMLI
TAF
KMLI 071737Z 0718/0818 26004KT P6SM FEW040 SCT250
     FM080000 29006KT P6SM VCTS SCT040CB BKN150 PROB30 0803/0809 3SM
      -TSRA BR BKN035CB OVC070=

USA.gov is the U.S. government's official web portal to all federal, state and local government web resources and services.